sensor_id;sensor_type;location;lat;lon;timestamp;pressure;altitude;pressure_sealevel;temperature;humidity
76753;BME280;65687;51.308;16.916;2023-07-24T00:04:43;98950.46;;;18.83;53.49
76753;BME280;65687;51.308;16.916;2023-07-24T00:09:44;98950.27;;;18.72;53.48
76753;BME280;65687;51.308;16.916;2023-07-24T00:14:46;98955.45;;;18.66;53.96
76753;BME280;65687;51.308;16.916;2023-07-24T00:19:48;98954.24;;;18.66;54.56
76753;BME280;65687;51.308;16.916;2023-07-24T00:24:50;98956.08;;;18.63;54.43
76753;BME280;65687;51.308;16.916;2023-07-24T00:29:51;98955.11;;;18.57;55.04
76753;BME280;65687;51.308;16.916;2023-07-24T00:34:53;98951.23;;;18.53;55.25
76753;BME280;65687;51.308;16.916;2023-07-24T00:39:54;98940.79;;;18.42;55.80
76753;BME280;65687;51.308;16.916;2023-07-24T00:44:56;98934.30;;;18.34;55.82
76753;BME280;65687;51.308;16.916;2023-07-24T00:49:58;98926.77;;;18.35;56.21
76753;BME280;65687;51.308;16.916;2023-07-24T00:54:59;98928.16;;;18.37;56.20
76753;BME280;65687;51.308;16.916;2023-07-24T01:00:01;98924.61;;;18.38;56.56
76753;BME280;65687;51.308;16.916;2023-07-24T01:05:05;98922.23;;;18.39;56.07
76753;BME280;65687;51.308;16.916;2023-07-24T01:10:07;98927.05;;;18.40;56.14
76753;BME280;65687;51.308;16.916;2023-07-24T01:15:16;98929.73;;;18.38;56.63
76753;BME280;65687;51.308;16.916;2023-07-24T01:20:21;98935.45;;;18.32;57.28
76753;BME280;65687;51.308;16.916;2023-07-24T01:25:31;98933.70;;;18.31;57.36
76753;BME280;65687;51.308;16.916;2023-07-24T01:30:33;98929.52;;;18.27;58.15
76753;BME280;65687;51.308;16.916;2023-07-24T01:35:36;98926.90;;;18.24;58.42
76753;BME280;65687;51.308;16.916;2023-07-24T01:40:42;98927.60;;;18.24;58.47
76753;BME280;65687;51.308;16.916;2023-07-24T01:45:44;98919.10;;;18.26;59.06
76753;BME280;65687;51.308;16.916;2023-07-24T01:50:45;98913.61;;;18.26;59.33
76753;BME280;65687;51.308;16.916;2023-07-24T01:55:47;98919.98;;;18.29;58.99
76753;BME280;65687;51.308;16.916;2023-07-24T02:00:49;98921.15;;;18.35;58.82
76753;BME280;65687;51.308;16.916;2023-07-24T02:05:50;98914.14;;;18.36;58.78
76753;BME280;65687;51.308;16.916;2023-07-24T02:10:52;98909.88;;;18.36;57.93
76753;BME280;65687;51.308;16.916;2023-07-24T02:15:54;98901.46;;;18.43;56.71
76753;BME280;65687;51.308;16.916;2023-07-24T02:20:55;98896.39;;;18.55;54.96
76753;BME280;65687;51.308;16.916;2023-07-24T02:25:57;98893.30;;;18.62;55.01
76753;BME280;65687;51.308;16.916;2023-07-24T02:30:58;98883.25;;;18.65;54.84
76753;BME280;65687;51.308;16.916;2023-07-24T02:36:01;98875.41;;;18.67;55.34
76753;BME280;65687;51.308;16.916;2023-07-24T02:41:03;98870.02;;;18.71;54.29
76753;BME280;65687;51.308;16.916;2023-07-24T02:46:04;98875.52;;;18.74;53.98
76753;BME280;65687;51.308;16.916;2023-07-24T02:51:06;98871.83;;;18.77;53.60
76753;BME280;65687;51.308;16.916;2023-07-24T02:56:07;98869.66;;;18.80;53.69
76753;BME280;65687;51.308;16.916;2023-07-24T03:01:09;98876.86;;;18.82;53.61
76753;BME280;65687;51.308;16.916;2023-07-24T03:06:11;98880.96;;;18.81;53.81
76753;BME280;65687;51.308;16.916;2023-07-24T03:11:13;98870.77;;;18.76;54.56
76753;BME280;65687;51.308;16.916;2023-07-24T03:16:14;98868.77;;;18.69;54.77
76753;BME280;65687;51.308;16.916;2023-07-24T03:21:19;98875.94;;;18.67;54.45
76753;BME280;65687;51.308;16.916;2023-07-24T03:26:20;98872.66;;;18.66;54.60
76753;BME280;65687;51.308;16.916;2023-07-24T03:31:22;98873.85;;;18.66;55.50
76753;BME280;65687;51.308;16.916;2023-07-24T03:36:23;98872.30;;;18.64;55.79
76753;BME280;65687;51.308;16.916;2023-07-24T03:41:25;98876.01;;;18.62;56.55
76753;BME280;65687;51.308;16.916;2023-07-24T03:46:26;98877.73;;;18.55;56.81
76753;BME280;65687;51.308;16.916;2023-07-24T03:51:28;98875.81;;;18.44;57.26
76753;BME280;65687;51.308;16.916;2023-07-24T03:56:29;98869.61;;;18.40;57.89
76753;BME280;65687;51.308;16.916;2023-07-24T04:01:31;98865.06;;;18.35;58.27
76753;BME280;65687;51.308;16.916;2023-07-24T04:06:32;98865.11;;;18.37;58.10
76753;BME280;65687;51.308;16.916;2023-07-24T04:11:34;98869.96;;;18.40;57.45
76753;BME280;65687;51.308;16.916;2023-07-24T04:16:36;98872.27;;;18.46;57.43
76753;BME280;65687;51.308;16.916;2023-07-24T04:21:37;98870.34;;;18.53;57.08
76753;BME280;65687;51.308;16.916;2023-07-24T04:26:39;98872.19;;;18.58;57.39
76753;BME280;65687;51.308;16.916;2023-07-24T04:31:41;98876.46;;;18.58;57.87
76753;BME280;65687;51.308;16.916;2023-07-24T04:36:42;98878.58;;;18.62;57.90
76753;BME280;65687;51.308;16.916;2023-07-24T04:41:44;98881.41;;;18.67;57.13
76753;BME280;65687;51.308;16.916;2023-07-24T04:46:45;98877.77;;;18.75;56.35
76753;BME280;65687;51.308;16.916;2023-07-24T04:51:47;98876.15;;;18.80;56.20
76753;BME280;65687;51.308;16.916;2023-07-24T04:56:48;98871.29;;;18.86;56.87
76753;BME280;65687;51.308;16.916;2023-07-24T05:01:50;98863.64;;;18.89;57.76
76753;BME280;65687;51.308;16.916;2023-07-24T05:06:51;98863.98;;;18.88;59.31
76753;BME280;65687;51.308;16.916;2023-07-24T05:11:53;98859.88;;;18.90;59.25
76753;BME280;65687;51.308;16.916;2023-07-24T05:16:54;98857.75;;;18.85;60.00
76753;BME280;65687;51.308;16.916;2023-07-24T05:21:56;98851.67;;;18.79;61.04
76753;BME280;65687;51.308;16.916;2023-07-24T05:26:57;98852.69;;;18.78;60.81
76753;BME280;65687;51.308;16.916;2023-07-24T05:31:58;98850.50;;;18.79;62.10
76753;BME280;65687;51.308;16.916;2023-07-24T05:37:00;98837.98;;;18.79;61.52
76753;BME280;65687;51.308;16.916;2023-07-24T05:42:02;98825.37;;;18.82;61.09
76753;BME280;65687;51.308;16.916;2023-07-24T05:47:03;98807.97;;;18.86;63.26
76753;BME280;65687;51.308;16.916;2023-07-24T05:52:05;98801.84;;;18.87;62.34
76753;BME280;65687;51.308;16.916;2023-07-24T05:57:07;98789.82;;;18.96;60.93
76753;BME280;65687;51.308;16.916;2023-07-24T06:02:09;98787.09;;;19.08;60.46
76753;BME280;65687;51.308;16.916;2023-07-24T06:07:11;98778.65;;;19.17;59.65
76753;BME280;65687;51.308;16.916;2023-07-24T06:12:12;98774.70;;;19.28;58.84
76753;BME280;65687;51.308;16.916;2023-07-24T06:17:14;98780.16;;;19.40;58.19
76753;BME280;65687;51.308;16.916;2023-07-24T06:22:16;98779.64;;;19.50;58.07
76753;BME280;65687;51.308;16.916;2023-07-24T06:27:17;98777.54;;;19.60;57.70
76753;BME280;65687;51.308;16.916;2023-07-24T06:32:19;98778.00;;;19.71;57.90
76753;BME280;65687;51.308;16.916;2023-07-24T06:37:20;98774.66;;;19.79;58.41
76753;BME280;65687;51.308;16.916;2023-07-24T06:42:22;98765.00;;;19.88;58.38
76753;BME280;65687;51.308;16.916;2023-07-24T06:47:24;98760.80;;;19.96;57.45
76753;BME280;65687;51.308;16.916;2023-07-24T06:52:26;98760.05;;;20.08;56.24
76753;BME280;65687;51.308;16.916;2023-07-24T06:57:27;98756.08;;;20.21;56.26
76753;BME280;65687;51.308;16.916;2023-07-24T07:02:29;98764.82;;;20.38;56.02
76753;BME280;65687;51.308;16.916;2023-07-24T07:07:31;98762.64;;;20.64;55.59
76753;BME280;65687;51.308;16.916;2023-07-24T07:12:32;98758.18;;;20.90;54.49
76753;BME280;65687;51.308;16.916;2023-07-24T07:17:34;98750.61;;;21.13;54.15
76753;BME280;65687;51.308;16.916;2023-07-24T07:22:35;98748.70;;;21.43;53.46
76753;BME280;65687;51.308;16.916;2023-07-24T07:27:37;98740.39;;;21.72;52.62
76753;BME280;65687;51.308;16.916;2023-07-24T07:32:38;98740.64;;;21.99;52.04
76753;BME280;65687;51.308;16.916;2023-07-24T07:37:40;98741.55;;;22.29;51.11
76753;BME280;65687;51.308;16.916;2023-07-24T07:42:41;98739.66;;;22.57;50.40
76753;BME280;65687;51.308;16.916;2023-07-24T07:47:42;98731.73;;;22.85;50.27
76753;BME280;65687;51.308;16.916;2023-07-24T07:52:44;98724.06;;;23.20;49.24
76753;BME280;65687;51.308;16.916;2023-07-24T07:57:46;98717.52;;;23.61;48.72
76753;BME280;65687;51.308;16.916;2023-07-24T08:02:47;98708.86;;;23.97;46.96
76753;BME280;65687;51.308;16.916;2023-07-24T08:07:49;98705.88;;;24.31;46.48
76753;BME280;65687;51.308;16.916;2023-07-24T08:12:50;98715.71;;;24.72;44.47
76753;BME280;65687;51.308;16.916;2023-07-24T08:17:52;98726.27;;;25.19;43.04
76753;BME280;65687;51.308;16.916;2023-07-24T08:22:53;98728.21;;;25.60;42.04
76753;BME280;65687;51.308;16.916;2023-07-24T08:27:55;98722.19;;;25.96;40.82
76753;BME280;65687;51.308;16.916;2023-07-24T08:32:56;98710.42;;;26.30;40.95
76753;BME280;65687;51.308;16.916;2023-07-24T08:37:59;98705.53;;;26.64;40.14
76753;BME280;65687;51.308;16.916;2023-07-24T08:43:00;98697.63;;;26.79;40.10
76753;BME280;65687;51.308;16.916;2023-07-24T08:48:02;98709.60;;;27.06;38.41
76753;BME280;65687;51.308;16.916;2023-07-24T08:53:04;98709.80;;;27.31;38.58
76753;BME280;65687;51.308;16.916;2023-07-24T08:58:05;98704.89;;;27.68;37.96
76753;BME280;65687;51.308;16.916;2023-07-24T09:03:08;98704.86;;;27.92;37.19
76753;BME280;65687;51.308;16.916;2023-07-24T09:08:10;98685.98;;;27.90;36.58
76753;BME280;65687;51.308;16.916;2023-07-24T09:13:12;98676.86;;;28.02;36.92
76753;BME280;65687;51.308;16.916;2023-07-24T09:18:13;98664.52;;;28.25;35.83
76753;BME280;65687;51.308;16.916;2023-07-24T09:23:15;98659.84;;;28.38;35.60
76753;BME280;65687;51.308;16.916;2023-07-24T09:28:17;98660.03;;;28.44;34.52
76753;BME280;65687;51.308;16.916;2023-07-24T09:33:18;98658.55;;;28.41;34.65
76753;BME280;65687;51.308;16.916;2023-07-24T09:38:20;98656.91;;;28.44;34.92
76753;BME280;65687;51.308;16.916;2023-07-24T09:43:23;98666.18;;;28.54;34.95
76753;BME280;65687;51.308;16.916;2023-07-24T09:48:26;98659.55;;;28.76;34.80
76753;BME280;65687;51.308;16.916;2023-07-24T09:53:39;98653.79;;;28.90;34.08
76753;BME280;65687;51.308;16.916;2023-07-24T09:58:44;98643.98;;;28.93;33.49
76753;BME280;65687;51.308;16.916;2023-07-24T10:03:47;98647.74;;;28.83;33.41
76753;BME280;65687;51.308;16.916;2023-07-24T10:08:49;98647.20;;;28.83;33.67
76753;BME280;65687;51.308;16.916;2023-07-24T10:13:52;98642.36;;;28.94;33.30
76753;BME280;65687;51.308;16.916;2023-07-24T10:18:55;98642.19;;;28.88;33.13
76753;BME280;65687;51.308;16.916;2023-07-24T10:23:59;98633.05;;;28.73;33.80
76753;BME280;65687;51.308;16.916;2023-07-24T10:29:01;98622.18;;;28.83;33.14
76753;BME280;65687;51.308;16.916;2023-07-24T10:34:06;98616.41;;;29.08;33.19
76753;BME280;65687;51.308;16.916;2023-07-24T10:39:16;98616.48;;;29.23;30.60
76753;BME280;65687;51.308;16.916;2023-07-24T10:44:30;98612.68;;;29.28;30.79
76753;BME280;65687;51.308;16.916;2023-07-24T10:49:33;98607.75;;;29.24;30.75
76753;BME280;65687;51.308;16.916;2023-07-24T10:54:35;98596.64;;;29.23;31.01
76753;BME280;65687;51.308;16.916;2023-07-24T10:59:40;98583.80;;;29.28;31.09
76753;BME280;65687;51.308;16.916;2023-07-24T11:04:41;98583.02;;;29.31;30.81
76753;BME280;65687;51.308;16.916;2023-07-24T11:09:43;98571.45;;;29.23;30.72
76753;BME280;65687;51.308;16.916;2023-07-24T11:14:49;98548.11;;;29.24;30.76
76753;BME280;65687;51.308;16.916;2023-07-24T11:19:50;98538.11;;;29.27;30.68
76753;BME280;65687;51.308;16.916;2023-07-24T11:24:52;98537.50;;;29.29;31.08
76753;BME280;65687;51.308;16.916;2023-07-24T11:29:53;98529.30;;;29.30;30.96
76753;BME280;65687;51.308;16.916;2023-07-24T11:34:55;98533.20;;;29.34;30.72
76753;BME280;65687;51.308;16.916;2023-07-24T11:40:02;98535.16;;;29.21;30.79
76753;BME280;65687;51.308;16.916;2023-07-24T11:45:11;98530.17;;;29.14;31.30
76753;BME280;65687;51.308;16.916;2023-07-24T11:50:14;98527.50;;;29.16;32.53
76753;BME280;65687;51.308;16.916;2023-07-24T11:55:18;98526.45;;;29.10;33.20
76753;BME280;65687;51.308;16.916;2023-07-24T12:00:21;98524.48;;;28.95;33.28
76753;BME280;65687;51.308;16.916;2023-07-24T12:05:23;98520.48;;;28.89;33.54
76753;BME280;65687;51.308;16.916;2023-07-24T12:10:26;98514.67;;;28.80;33.38
76753;BME280;65687;51.308;16.916;2023-07-24T12:15:31;98503.19;;;28.67;33.54
76753;BME280;65687;51.308;16.916;2023-07-24T12:20:35;98505.69;;;28.59;33.15
76753;BME280;65687;51.308;16.916;2023-07-24T12:25:36;98498.41;;;28.52;33.58
76753;BME280;65687;51.308;16.916;2023-07-24T12:30:38;98495.63;;;28.47;34.71
76753;BME280;65687;51.308;16.916;2023-07-24T12:35:39;98493.92;;;28.40;34.76
76753;BME280;65687;51.308;16.916;2023-07-24T12:40:41;98487.40;;;28.43;34.96
76753;BME280;65687;51.308;16.916;2023-07-24T12:45:42;98486.67;;;28.44;35.22
76753;BME280;65687;51.308;16.916;2023-07-24T12:50:44;98481.06;;;28.46;36.11
76753;BME280;65687;51.308;16.916;2023-07-24T12:55:45;98475.41;;;28.49;34.89
76753;BME280;65687;51.308;16.916;2023-07-24T13:00:47;98465.59;;;28.47;34.58
76753;BME280;65687;51.308;16.916;2023-07-24T13:05:48;98473.55;;;28.36;34.42
76753;BME280;65687;51.308;16.916;2023-07-24T13:10:50;98472.20;;;28.22;35.02
76753;BME280;65687;51.308;16.916;2023-07-24T13:15:51;98473.02;;;28.11;35.54
76753;BME280;65687;51.308;16.916;2023-07-24T13:20:53;98474.71;;;27.99;36.21
76753;BME280;65687;51.308;16.916;2023-07-24T13:25:54;98469.09;;;27.89;36.50
76753;BME280;65687;51.308;16.916;2023-07-24T13:30:56;98459.94;;;27.80;36.50
76753;BME280;65687;51.308;16.916;2023-07-24T13:35:57;98457.89;;;27.73;36.86
76753;BME280;65687;51.308;16.916;2023-07-24T13:40:59;98453.66;;;27.68;37.22
76753;BME280;65687;51.308;16.916;2023-07-24T13:46:00;98452.95;;;27.69;37.52
76753;BME280;65687;51.308;16.916;2023-07-24T13:51:04;98450.42;;;27.72;37.41
76753;BME280;65687;51.308;16.916;2023-07-24T13:56:05;98438.39;;;27.69;37.39
76753;BME280;65687;51.308;16.916;2023-07-24T14:01:08;98426.55;;;27.43;37.18
76753;BME280;65687;51.308;16.916;2023-07-24T14:06:10;98418.77;;;27.28;36.96
76753;BME280;65687;51.308;16.916;2023-07-24T14:11:11;98411.39;;;27.18;36.99
76753;BME280;65687;51.308;16.916;2023-07-24T14:16:13;98403.08;;;27.18;37.02
76753;BME280;65687;51.308;16.916;2023-07-24T14:21:14;98404.50;;;27.16;37.43
76753;BME280;65687;51.308;16.916;2023-07-24T14:26:16;98399.68;;;27.08;37.52
76753;BME280;65687;51.308;16.916;2023-07-24T14:31:17;98390.35;;;27.06;37.90
76753;BME280;65687;51.308;16.916;2023-07-24T14:36:19;98374.25;;;27.06;38.20
76753;BME280;65687;51.308;16.916;2023-07-24T14:41:20;98364.64;;;27.09;38.33
76753;BME280;65687;51.308;16.916;2023-07-24T14:46:22;98363.14;;;27.20;37.94
76753;BME280;65687;51.308;16.916;2023-07-24T14:51:24;98353.19;;;27.24;37.77
76753;BME280;65687;51.308;16.916;2023-07-24T14:56:26;98349.38;;;27.29;38.25
76753;BME280;65687;51.308;16.916;2023-07-24T15:01:28;98345.54;;;27.37;37.92
76753;BME280;65687;51.308;16.916;2023-07-24T15:06:30;98346.33;;;27.40;38.23
76753;BME280;65687;51.308;16.916;2023-07-24T15:11:31;98337.16;;;27.40;38.07
76753;BME280;65687;51.308;16.916;2023-07-24T15:16:33;98326.90;;;27.34;38.11
76753;BME280;65687;51.308;16.916;2023-07-24T15:21:34;98325.17;;;27.27;38.03
76753;BME280;65687;51.308;16.916;2023-07-24T15:26:36;98321.65;;;27.23;38.55
76753;BME280;65687;51.308;16.916;2023-07-24T15:31:38;98313.94;;;27.19;38.73
76753;BME280;65687;51.308;16.916;2023-07-24T15:36:42;98312.41;;;27.11;39.38
76753;BME280;65687;51.308;16.916;2023-07-24T15:41:43;98307.39;;;27.04;39.25
76753;BME280;65687;51.308;16.916;2023-07-24T15:46:45;98296.52;;;27.02;39.48
76753;BME280;65687;51.308;16.916;2023-07-24T15:51:48;98283.39;;;27.02;39.47
76753;BME280;65687;51.308;16.916;2023-07-24T15:56:49;98277.18;;;27.00;39.65
76753;BME280;65687;51.308;16.916;2023-07-24T16:01:51;98268.58;;;26.97;40.22
76753;BME280;65687;51.308;16.916;2023-07-24T16:06:53;98261.63;;;26.92;40.16
76753;BME280;65687;51.308;16.916;2023-07-24T16:11:55;98260.43;;;26.91;40.20
76753;BME280;65687;51.308;16.916;2023-07-24T16:16:56;98256.98;;;26.90;40.82
76753;BME280;65687;51.308;16.916;2023-07-24T16:21:58;98259.73;;;26.92;40.96
76753;BME280;65687;51.308;16.916;2023-07-24T16:27:00;98251.33;;;26.95;40.52
76753;BME280;65687;51.308;16.916;2023-07-24T16:32:05;98245.19;;;26.97;40.58
76753;BME280;65687;51.308;16.916;2023-07-24T16:37:06;98234.66;;;26.96;40.49
76753;BME280;65687;51.308;16.916;2023-07-24T16:42:08;98212.09;;;26.90;40.55
76753;BME280;65687;51.308;16.916;2023-07-24T16:47:11;98209.12;;;26.84;41.13
76753;BME280;65687;51.308;16.916;2023-07-24T16:52:13;98209.15;;;26.76;41.35
76753;BME280;65687;51.308;16.916;2023-07-24T16:57:15;98206.75;;;26.69;42.60
76753;BME280;65687;51.308;16.916;2023-07-24T17:02:17;98206.17;;;26.64;41.80
76753;BME280;65687;51.308;16.916;2023-07-24T17:07:18;98207.20;;;26.65;41.61
76753;BME280;65687;51.308;16.916;2023-07-24T17:12:20;98199.69;;;26.60;43.75
76753;BME280;65687;51.308;16.916;2023-07-24T17:17:21;98193.93;;;26.49;42.22
76753;BME280;65687;51.308;16.916;2023-07-24T17:22:23;98192.27;;;26.46;41.90
76753;BME280;65687;51.308;16.916;2023-07-24T17:27:25;98199.98;;;26.42;41.84
76753;BME280;65687;51.308;16.916;2023-07-24T17:32:26;98197.88;;;26.36;42.24
76753;BME280;65687;51.308;16.916;2023-07-24T17:37:28;98190.82;;;26.28;42.60
76753;BME280;65687;51.308;16.916;2023-07-24T17:42:37;98192.21;;;26.19;42.97
76753;BME280;65687;51.308;16.916;2023-07-24T17:47:39;98190.31;;;26.12;43.26
76753;BME280;65687;51.308;16.916;2023-07-24T17:52:41;98175.59;;;26.05;43.74
76753;BME280;65687;51.308;16.916;2023-07-24T17:57:42;98169.17;;;25.99;43.85
76753;BME280;65687;51.308;16.916;2023-07-24T18:02:48;98166.70;;;25.94;43.87
76753;BME280;65687;51.308;16.916;2023-07-24T18:07:50;98175.32;;;25.87;44.18
76753;BME280;65687;51.308;16.916;2023-07-24T18:12:52;98177.08;;;25.78;44.33
76753;BME280;65687;51.308;16.916;2023-07-24T18:17:54;98176.75;;;25.70;44.62
76753;BME280;65687;51.308;16.916;2023-07-24T18:22:56;98180.72;;;25.61;44.96
76753;BME280;65687;51.308;16.916;2023-07-24T18:27:57;98173.96;;;25.53;45.29
76753;BME280;65687;51.308;16.916;2023-07-24T18:32:59;98170.20;;;25.43;45.90
76753;BME280;65687;51.308;16.916;2023-07-24T18:38:00;98163.86;;;25.24;47.36
76753;BME280;65687;51.308;16.916;2023-07-24T18:43:03;98169.10;;;25.04;47.87
76753;BME280;65687;51.308;16.916;2023-07-24T18:48:04;98170.82;;;24.87;48.60
76753;BME280;65687;51.308;16.916;2023-07-24T18:53:06;98168.58;;;24.58;49.64
76753;BME280;65687;51.308;16.916;2023-07-24T18:58:07;98174.41;;;24.29;51.25
76753;BME280;65687;51.308;16.916;2023-07-24T19:03:09;98175.80;;;24.05;51.91
76753;BME280;65687;51.308;16.916;2023-07-24T19:08:12;98166.73;;;23.78;52.78
76753;BME280;65687;51.308;16.916;2023-07-24T19:13:14;98171.21;;;23.52;53.43
76753;BME280;65687;51.308;16.916;2023-07-24T19:18:16;98166.59;;;23.35;53.76
76753;BME280;65687;51.308;16.916;2023-07-24T19:23:17;98159.52;;;23.24;54.58
76753;BME280;65687;51.308;16.916;2023-07-24T19:28:19;98152.20;;;23.01;55.08
76753;BME280;65687;51.308;16.916;2023-07-24T19:33:21;98150.68;;;22.83;55.63
76753;BME280;65687;51.308;16.916;2023-07-24T19:38:23;98148.77;;;22.66;56.03
76753;BME280;65687;51.308;16.916;2023-07-24T19:43:25;98149.10;;;22.68;55.34
76753;BME280;65687;51.308;16.916;2023-07-24T19:48:26;98146.80;;;22.77;54.93
76753;BME280;65687;51.308;16.916;2023-07-24T19:53:28;98155.86;;;22.83;54.78
76753;BME280;65687;51.308;16.916;2023-07-24T19:58:30;98149.11;;;22.87;57.02
76753;BME280;65687;51.308;16.916;2023-07-24T20:03:36;98156.21;;;22.83;55.96
76753;BME280;65687;51.308;16.916;2023-07-24T20:08:38;98159.83;;;22.83;55.03
76753;BME280;65687;51.308;16.916;2023-07-24T20:13:39;98159.02;;;22.77;56.27
76753;BME280;65687;51.308;16.916;2023-07-24T20:18:41;98161.96;;;22.76;55.37
76753;BME280;65687;51.308;16.916;2023-07-24T20:23:42;98170.58;;;22.73;55.51
76753;BME280;65687;51.308;16.916;2023-07-24T20:28:44;98168.71;;;22.69;54.99
76753;BME280;65687;51.308;16.916;2023-07-24T20:33:45;98175.80;;;22.65;54.31
76753;BME280;65687;51.308;16.916;2023-07-24T20:38:47;98178.78;;;22.60;53.77
76753;BME280;65687;51.308;16.916;2023-07-24T20:43:48;98177.10;;;22.56;53.50
76753;BME280;65687;51.308;16.916;2023-07-24T20:48:50;98178.00;;;22.51;53.24
76753;BME280;65687;51.308;16.916;2023-07-24T20:53:51;98178.20;;;22.48;53.06
76753;BME280;65687;51.308;16.916;2023-07-24T20:58:53;98185.14;;;22.43;53.71
76753;BME280;65687;51.308;16.916;2023-07-24T21:03:54;98189.30;;;22.38;53.91
76753;BME280;65687;51.308;16.916;2023-07-24T21:08:56;98182.00;;;22.27;55.02
76753;BME280;65687;51.308;16.916;2023-07-24T21:13:57;98182.06;;;22.20;54.23
76753;BME280;65687;51.308;16.916;2023-07-24T21:18:59;98185.34;;;22.17;54.22
76753;BME280;65687;51.308;16.916;2023-07-24T21:24:00;98194.97;;;22.18;54.20
76753;BME280;65687;51.308;16.916;2023-07-24T21:29:02;98190.48;;;22.20;54.25
76753;BME280;65687;51.308;16.916;2023-07-24T21:34:03;98194.58;;;22.23;54.22
76753;BME280;65687;51.308;16.916;2023-07-24T21:39:05;98194.92;;;22.24;54.25
76753;BME280;65687;51.308;16.916;2023-07-24T21:44:06;98199.06;;;22.22;54.32
76753;BME280;65687;51.308;16.916;2023-07-24T21:49:08;98203.05;;;22.17;54.63
76753;BME280;65687;51.308;16.916;2023-07-24T21:54:10;98203.62;;;22.12;54.72
76753;BME280;65687;51.308;16.916;2023-07-24T21:59:11;98210.88;;;22.05;54.99
76753;BME280;65687;51.308;16.916;2023-07-24T22:04:13;98215.56;;;21.98;55.16
76753;BME280;65687;51.308;16.916;2023-07-24T22:09:15;98226.95;;;21.88;55.41
76753;BME280;65687;51.308;16.916;2023-07-24T22:14:17;98235.23;;;21.80;55.61
76753;BME280;65687;51.308;16.916;2023-07-24T22:19:18;98243.37;;;21.71;55.75
76753;BME280;65687;51.308;16.916;2023-07-24T22:24:20;98242.55;;;21.66;55.84
76753;BME280;65687;51.308;16.916;2023-07-24T22:29:21;98244.45;;;21.62;55.94
76753;BME280;65687;51.308;16.916;2023-07-24T22:34:23;98248.77;;;21.54;56.17
76753;BME280;65687;51.308;16.916;2023-07-24T22:39:24;98249.31;;;21.49;56.45
76753;BME280;65687;51.308;16.916;2023-07-24T22:44:26;98250.00;;;21.46;56.82
76753;BME280;65687;51.308;16.916;2023-07-24T22:49:27;98249.84;;;21.44;57.03
76753;BME280;65687;51.308;16.916;2023-07-24T22:54:29;98256.55;;;21.40;57.38
76753;BME280;65687;51.308;16.916;2023-07-24T22:59:30;98266.73;;;21.36;57.55
76753;BME280;65687;51.308;16.916;2023-07-24T23:04:32;98273.77;;;21.35;57.72
76753;BME280;65687;51.308;16.916;2023-07-24T23:09:34;98275.65;;;21.31;58.17
76753;BME280;65687;51.308;16.916;2023-07-24T23:14:35;98279.79;;;21.27;58.46
76753;BME280;65687;51.308;16.916;2023-07-24T23:19:37;98289.95;;;21.21;58.56
76753;BME280;65687;51.308;16.916;2023-07-24T23:24:38;98278.42;;;21.17;58.50
76753;BME280;65687;51.308;16.916;2023-07-24T23:29:40;98275.84;;;21.14;58.32
76753;BME280;65687;51.308;16.916;2023-07-24T23:34:41;98278.08;;;21.11;58.23
76753;BME280;65687;51.308;16.916;2023-07-24T23:39:43;98281.52;;;21.07;58.09
76753;BME280;65687;51.308;16.916;2023-07-24T23:44:44;98285.30;;;21.00;58.18
76753;BME280;65687;51.308;16.916;2023-07-24T23:49:46;98281.89;;;20.92;57.93
76753;BME280;65687;51.308;16.916;2023-07-24T23:54:47;98279.14;;;20.85;57.84
76753;BME280;65687;51.308;16.916;2023-07-24T23:59:49;98284.48;;;20.78;58.88
